createdAt,value
2023-03-03T00:00:51.439Z,12.98
2023-03-03T00:03:23.732Z,12.48
2023-03-03T00:05:53.605Z,12.18
2023-03-03T00:08:23.161Z,12.13
2023-03-03T00:10:55.511Z,13.00
2023-03-03T00:13:27.103Z,11.23
2023-03-03T00:16:10.273Z,11.77
2023-03-03T00:18:43.256Z,11.65
2023-03-03T00:21:29.429Z,12.30
2023-03-03T00:24:20.552Z,11.88
2023-03-03T00:26:51.983Z,11.70
2023-03-03T00:29:32.661Z,10.63
2023-03-03T00:32:22.466Z,11.43
2023-03-03T00:34:51.880Z,11.35
2023-03-03T00:37:29.435Z,11.70
2023-03-03T00:40:31.472Z,10.25
2023-03-03T00:43:02.335Z,11.02
2023-03-03T00:45:34.608Z,11.75
2023-03-03T00:48:18.031Z,11.82
2023-03-03T00:50:46.858Z,10.70
2023-03-03T00:53:18.178Z,10.65
2023-03-03T00:55:48.126Z,11.82
2023-03-03T00:58:21.770Z,9.95
2023-03-03T01:00:52.295Z,10.38
2023-03-03T01:03:27.189Z,10.82
2023-03-03T01:05:56.452Z,12.25
2023-03-03T01:08:26.312Z,11.32
2023-03-03T01:10:57.100Z,11.07
2023-03-03T01:13:30.076Z,11.30
2023-03-03T01:18:28.565Z,9.80
2023-03-03T01:20:57.602Z,10.05
2023-03-03T01:23:26.594Z,11.98
2023-03-03T01:25:56.053Z,11.57
2023-03-03T01:28:24.918Z,11.15
2023-03-03T01:30:55.393Z,12.05
2023-03-03T01:33:24.346Z,12.43
2023-03-03T01:35:55.316Z,10.57
2023-03-03T01:38:24.421Z,11.55
2023-03-03T01:40:55.540Z,11.57
2023-03-03T01:43:25.157Z,12.15
2023-03-03T01:46:30.470Z,12.45
2023-03-03T01:49:03.331Z,11.70
2023-03-03T01:51:35.295Z,12.63
2023-03-03T01:54:06.653Z,13.05
2023-03-03T01:56:35.376Z,12.27
2023-03-03T01:59:08.596Z,12.55
2023-03-03T02:01:39.033Z,13.02
2023-03-03T02:04:08.165Z,12.02
2023-03-03T02:06:39.761Z,13.00
2023-03-03T02:09:15.646Z,12.07
2023-03-03T02:11:48.137Z,12.52
2023-03-03T02:14:17.023Z,12.85
2023-03-03T02:16:47.280Z,12.18
2023-03-03T02:19:23.816Z,12.48
2023-03-03T02:21:54.036Z,11.90
2023-03-03T02:24:28.606Z,12.90
2023-03-03T02:26:59.400Z,13.45
2023-03-03T02:29:29.753Z,13.70
2023-03-03T02:31:59.575Z,14.27
2023-03-03T02:34:28.513Z,14.30
2023-03-03T02:36:57.277Z,13.93
2023-03-03T02:39:27.629Z,15.82
2023-03-03T02:42:02.104Z,14.93
2023-03-03T02:44:38.246Z,14.82
2023-03-03T02:47:07.047Z,13.73
2023-03-03T02:49:37.386Z,15.93
2023-03-03T02:52:09.853Z,14.65
2023-03-03T02:54:40.506Z,14.88
2023-03-03T02:57:11.156Z,14.93
2023-03-03T02:59:39.836Z,14.52
2023-03-03T03:02:19.298Z,15.65
2023-03-03T03:04:48.201Z,15.45
2023-03-03T03:07:22.273Z,15.80
2023-03-03T03:09:50.995Z,14.27
2023-03-03T03:12:21.800Z,15.38
2023-03-03T03:14:54.170Z,16.02
2023-03-03T03:17:23.109Z,16.70
2023-03-03T03:19:54.124Z,15.15
2023-03-03T03:22:23.597Z,15.35
2023-03-03T03:24:53.255Z,16.23
2023-03-03T03:27:24.377Z,13.50
2023-03-03T03:29:54.074Z,16.50
2023-03-03T03:32:23.811Z,16.05
2023-03-03T03:34:52.842Z,15.77
2023-03-03T03:37:22.565Z,16.02
2023-03-03T03:39:51.524Z,14.50
2023-03-03T03:42:22.931Z,15.15
2023-03-03T03:44:51.999Z,15.27
2023-03-03T03:47:21.181Z,15.18
2023-03-03T03:49:50.426Z,13.93
2023-03-03T03:52:19.592Z,15.93
2023-03-03T03:54:48.444Z,17.67
2023-03-03T03:57:17.456Z,15.77
2023-03-03T03:59:50.536Z,14.73
2023-03-03T04:02:19.890Z,16.05
2023-03-03T04:04:48.897Z,17.10
2023-03-03T04:07:17.992Z,17.27
2023-03-03T04:09:46.850Z,15.32
2023-03-03T04:12:15.738Z,14.77
2023-03-03T04:14:44.511Z,14.20
2023-03-03T04:17:18.003Z,15.05
2023-03-03T04:19:46.967Z,12.48
2023-03-03T04:22:16.014Z,15.60
2023-03-03T04:24:48.627Z,15.77
2023-03-03T04:27:18.873Z,14.93
2023-03-03T04:29:48.134Z,15.50
2023-03-03T04:32:18.741Z,15.32
2023-03-03T04:34:53.119Z,14.85
2023-03-03T04:37:28.319Z,14.43
2023-03-03T04:39:57.189Z,15.32
2023-03-03T04:42:28.124Z,14.63
2023-03-03T04:44:57.197Z,14.30
2023-03-03T04:47:27.872Z,14.30
2023-03-03T04:49:57.324Z,13.65
2023-03-03T04:52:26.133Z,14.98
2023-03-03T04:54:54.994Z,14.02
2023-03-03T04:57:24.241Z,13.68
2023-03-03T04:59:53.700Z,14.60
2023-03-03T05:02:22.523Z,14.85
2023-03-03T05:04:53.053Z,15.35
2023-03-03T05:07:22.075Z,13.18
2023-03-03T05:09:51.033Z,15.00
2023-03-03T05:12:20.112Z,13.65
2023-03-03T05:14:49.096Z,15.10
2023-03-03T05:17:17.873Z,13.18
2023-03-03T05:19:46.687Z,13.15
2023-03-03T05:22:16.872Z,13.57
2023-03-03T05:24:49.094Z,13.23
2023-03-03T05:27:18.173Z,12.65
2023-03-03T05:29:46.959Z,13.75
2023-03-03T05:32:15.713Z,13.93
2023-03-03T05:34:44.614Z,13.18
2023-03-03T05:37:13.489Z,13.32
2023-03-03T05:39:44.639Z,12.85
2023-03-03T05:42:14.267Z,13.38
2023-03-03T05:44:43.054Z,12.45
2023-03-03T05:47:11.873Z,10.82
2023-03-03T05:49:40.760Z,13.20
2023-03-03T05:52:09.606Z,13.82
2023-03-03T05:54:38.402Z,12.93
2023-03-03T05:57:08.693Z,13.90
2023-03-03T05:59:37.540Z,14.30
2023-03-03T06:02:06.550Z,12.75
2023-03-03T06:04:35.934Z,13.88
2023-03-03T06:07:04.974Z,12.30
2023-03-03T06:09:34.239Z,12.93
2023-03-03T06:12:02.971Z,12.35
2023-03-03T06:14:33.386Z,13.55
2023-03-03T06:17:02.123Z,13.35
2023-03-03T06:19:31.097Z,13.10
2023-03-03T06:22:00.843Z,12.68
2023-03-03T06:24:31.645Z,12.70
2023-03-03T06:27:00.794Z,13.20
2023-03-03T06:29:30.204Z,10.77
2023-03-03T06:32:00.533Z,11.65
2023-03-03T06:34:29.562Z,12.65
2023-03-03T06:36:58.217Z,11.68
2023-03-03T06:39:27.179Z,12.85
2023-03-03T06:41:55.929Z,12.75
2023-03-03T06:44:25.725Z,12.38
2023-03-03T06:46:58.028Z,11.32
2023-03-03T06:49:28.180Z,13.52
2023-03-03T06:51:57.912Z,15.25
2023-03-03T06:54:31.099Z,11.55
2023-03-03T06:57:02.284Z,13.70
2023-03-03T06:59:31.159Z,12.77
2023-03-03T07:01:59.943Z,13.23
2023-03-03T07:04:33.410Z,11.70
2023-03-03T07:07:17.687Z,12.80
2023-03-03T07:09:48.651Z,12.35
2023-03-03T07:12:20.226Z,12.70
2023-03-03T07:14:55.631Z,13.15
2023-03-03T07:17:26.592Z,9.43
2023-03-03T07:19:56.817Z,11.57
2023-03-03T07:22:30.244Z,11.85
2023-03-03T07:25:02.293Z,14.20
2023-03-03T07:27:32.743Z,11.60
2023-03-03T07:30:20.505Z,13.32
2023-03-03T07:32:49.546Z,12.73
2023-03-03T07:35:39.698Z,11.85
2023-03-03T07:38:32.653Z,11.57
2023-03-03T07:41:04.376Z,12.48
2023-03-03T07:43:37.110Z,12.77
2023-03-03T07:46:28.927Z,13.85
2023-03-03T07:48:58.864Z,11.80
2023-03-03T07:51:33.472Z,14.27
2023-03-03T07:54:19.136Z,12.93
2023-03-03T07:56:49.003Z,13.80
2023-03-03T07:59:23.707Z,12.63
2023-03-03T08:01:55.308Z,13.57
2023-03-03T08:04:28.673Z,12.05
2023-03-03T08:06:59.770Z,13.38
2023-03-03T08:09:47.791Z,11.45
2023-03-03T08:12:47.393Z,12.27
2023-03-03T08:15:24.969Z,11.65
2023-03-03T08:17:56.264Z,11.35
2023-03-03T08:20:45.611Z,11.68
2023-03-03T08:23:17.622Z,12.30
2023-03-03T08:25:47.478Z,10.73
2023-03-03T08:28:16.501Z,10.05
2023-03-03T08:30:45.875Z,12.57
2023-03-03T08:33:15.299Z,12.07
2023-03-03T08:35:44.742Z,9.73
2023-03-03T08:38:17.197Z,12.00
2023-03-03T08:40:46.557Z,10.82
2023-03-03T08:43:17.409Z,9.23
2023-03-03T08:45:47.112Z,10.13
2023-03-03T08:48:16.296Z,8.90
2023-03-03T08:50:45.684Z,10.23
2023-03-03T08:53:16.249Z,11.48
2023-03-03T08:55:45.359Z,10.27
2023-03-03T08:58:14.131Z,10.85
2023-03-03T09:00:44.010Z,12.10
2023-03-03T09:03:13.165Z,11.27
2023-03-03T09:05:42.632Z,10.10
2023-03-03T09:08:11.677Z,11.32
2023-03-03T09:10:42.003Z,9.73
2023-03-03T09:13:16.360Z,10.32
2023-03-03T09:15:45.510Z,10.43
2023-03-03T09:18:19.605Z,9.82
2023-03-03T09:20:50.248Z,9.27
2023-03-03T09:23:31.256Z,10.65
2023-03-03T09:26:18.884Z,10.55
2023-03-03T09:28:47.718Z,10.27
2023-03-03T09:31:25.830Z,9.70
2023-03-03T09:33:57.895Z,8.73
2023-03-03T09:36:29.161Z,10.15
2023-03-03T09:38:59.226Z,9.77
2023-03-03T09:41:51.205Z,10.40
2023-03-03T09:45:06.255Z,9.82
2023-03-03T09:50:29.475Z,8.50
2023-03-03T09:53:16.045Z,9.20
2023-03-03T09:55:52.629Z,9.32
2023-03-03T09:58:45.776Z,9.60
2023-03-03T10:01:34.765Z,8.30
2023-03-03T10:04:17.729Z,8.18
2023-03-03T10:06:50.623Z,9.55
2023-03-03T10:09:42.427Z,7.47
2023-03-03T10:12:19.502Z,9.20
2023-03-03T10:15:08.357Z,9.77
2023-03-03T10:17:49.648Z,8.68
2023-03-03T10:20:40.428Z,9.50
2023-03-03T10:23:23.052Z,9.07
2023-03-03T10:26:02.366Z,9.05
2023-03-03T10:29:09.792Z,9.55
2023-03-03T10:31:53.169Z,9.90
2023-03-03T10:34:34.353Z,9.57
2023-03-03T10:37:11.318Z,11.25
2023-03-03T10:39:57.424Z,9.68
2023-03-03T10:42:47.405Z,8.05
2023-03-03T10:45:43.094Z,8.30
2023-03-03T10:48:27.336Z,9.07
2023-03-03T10:51:03.765Z,10.95
2023-03-03T10:53:38.794Z,10.90
2023-03-03T10:56:18.240Z,10.40
2023-03-03T10:58:54.336Z,9.68
2023-03-03T11:01:39.039Z,10.70
2023-03-03T11:06:56.395Z,7.85
2023-03-03T11:09:39.105Z,9.80
2023-03-03T11:12:23.286Z,10.43
2023-03-03T11:15:01.508Z,9.52
2023-03-03T11:17:48.042Z,9.90
2023-03-03T11:20:31.549Z,9.15
2023-03-03T11:23:08.981Z,9.25
2023-03-03T11:25:44.351Z,9.98
2023-03-03T11:28:30.156Z,9.45
2023-03-03T11:31:12.935Z,8.95
2023-03-03T11:33:51.973Z,8.95
2023-03-03T11:36:27.373Z,9.63
2023-03-03T11:39:00.011Z,8.55
2023-03-03T11:44:11.058Z,8.57
2023-03-03T11:46:46.186Z,9.40
2023-03-03T11:49:22.616Z,9.43
2023-03-03T11:52:02.538Z,8.63
2023-03-03T11:54:38.360Z,8.02
2023-03-03T11:57:17.441Z,8.85
2023-03-03T11:59:53.685Z,9.27
2023-03-03T12:02:33.720Z,8.48
2023-03-03T12:05:10.054Z,7.75
2023-03-03T12:07:51.053Z,8.40
2023-03-03T12:10:29.388Z,8.90
2023-03-03T12:13:04.441Z,10.85
2023-03-03T12:15:40.609Z,11.57
2023-03-03T12:18:25.606Z,9.38
2023-03-03T12:21:08.478Z,10.10
2023-03-03T12:24:04.898Z,9.68
2023-03-03T12:26:42.319Z,10.68
2023-03-03T12:29:22.860Z,9.70
2023-03-03T12:31:56.512Z,9.10
2023-03-03T12:34:32.541Z,9.65
2023-03-03T12:37:17.577Z,9.07
2023-03-03T12:39:59.564Z,8.00
2023-03-03T12:42:45.365Z,8.35
2023-03-03T12:45:28.831Z,9.73
2023-03-03T12:48:02.884Z,8.65
2023-03-03T12:50:41.196Z,9.35
2023-03-03T12:53:24.748Z,10.13
2023-03-03T12:55:58.224Z,9.23
2023-03-03T12:58:38.326Z,10.02
2023-03-03T13:01:21.516Z,10.15
2023-03-03T13:03:56.995Z,9.32
2023-03-03T13:06:31.098Z,9.05
2023-03-03T13:09:16.464Z,8.00
2023-03-03T13:12:05.414Z,7.70
2023-03-03T13:14:42.268Z,8.98
2023-03-03T13:17:20.725Z,9.05
2023-03-03T13:19:56.012Z,8.32
2023-03-03T13:22:38.286Z,8.82
2023-03-03T13:25:21.721Z,7.78
2023-03-03T13:27:59.266Z,7.72
2023-03-03T13:30:31.883Z,8.48
2023-03-03T13:35:39.242Z,7.63
2023-03-03T13:38:13.387Z,8.23
2023-03-03T13:40:46.216Z,8.55
2023-03-03T13:43:20.920Z,8.07
2023-03-03T13:46:08.195Z,7.43
2023-03-03T13:48:50.989Z,8.00
2023-03-03T13:51:32.953Z,8.52
2023-03-03T13:54:10.558Z,8.55
2023-03-03T13:56:59.752Z,8.52
2023-03-03T13:59:37.484Z,7.32
2023-03-03T14:02:28.633Z,7.85
2023-03-03T14:05:02.156Z,8.07
2023-03-03T14:07:39.041Z,8.10
2023-03-03T14:10:16.907Z,7.32
2023-03-03T14:12:52.624Z,8.63
2023-03-03T14:15:28.907Z,7.70
2023-03-03T14:18:16.681Z,7.70
2023-03-03T14:20:49.398Z,8.63
2023-03-03T14:23:22.508Z,8.23
2023-03-03T14:25:59.206Z,7.82
2023-03-03T14:28:30.654Z,8.35
2023-03-03T14:31:16.845Z,8.40
2023-03-03T14:33:57.008Z,6.57
2023-03-03T14:36:31.956Z,7.53
2023-03-03T14:39:01.029Z,6.57
2023-03-03T14:41:42.816Z,7.05
2023-03-03T14:44:27.402Z,6.60
2023-03-03T14:47:12.613Z,7.07
2023-03-03T14:49:43.548Z,8.07
2023-03-03T14:52:22.064Z,6.28
2023-03-03T14:54:53.011Z,10.10
2023-03-03T14:57:24.570Z,7.97
2023-03-03T15:00:02.920Z,6.70
2023-03-03T15:02:37.736Z,6.80
2023-03-03T15:05:21.766Z,6.68
2023-03-03T15:07:54.686Z,6.40
2023-03-03T15:10:32.471Z,7.47
2023-03-03T15:13:43.075Z,5.88
2023-03-03T15:16:17.673Z,6.82
2023-03-03T15:19:33.787Z,6.30
2023-03-03T15:22:10.237Z,6.00
2023-03-03T15:24:47.221Z,5.85
2023-03-03T15:27:23.702Z,5.35
2023-03-03T15:30:03.647Z,6.05
2023-03-03T15:32:41.691Z,4.60
2023-03-03T15:35:25.083Z,5.53
2023-03-03T15:38:01.125Z,5.57
2023-03-03T15:40:33.301Z,5.45
2023-03-03T15:43:10.660Z,6.22
2023-03-03T15:45:46.046Z,5.40
2023-03-03T15:48:39.603Z,5.63
2023-03-03T15:51:19.414Z,5.53
2023-03-03T15:54:13.772Z,6.03
2023-03-03T15:56:49.746Z,6.38
2023-03-03T15:59:42.345Z,6.13
2023-03-03T16:02:17.803Z,5.07
2023-03-03T16:04:57.446Z,6.30
2023-03-03T16:07:49.344Z,6.32
2023-03-03T16:10:25.496Z,5.45
2023-03-03T16:13:04.611Z,5.57
2023-03-03T16:15:47.372Z,5.32
2023-03-03T16:18:27.008Z,6.60
2023-03-03T16:21:14.174Z,5.38
2023-03-03T16:23:49.026Z,5.75
2023-03-03T16:26:27.988Z,4.75
2023-03-03T16:29:23.360Z,5.30
2023-03-03T16:31:56.987Z,5.45
2023-03-03T16:34:33.531Z,5.78
2023-03-03T16:37:11.958Z,5.20
2023-03-03T16:39:53.814Z,5.47
2023-03-03T16:42:28.808Z,5.18
2023-03-03T16:45:10.295Z,4.95
2023-03-03T16:47:54.122Z,5.13
2023-03-03T16:50:28.943Z,5.10
2023-03-03T16:53:04.483Z,5.13
2023-03-03T16:55:43.357Z,4.95
2023-03-03T16:58:27.443Z,5.15
2023-03-03T17:01:02.486Z,5.18
2023-03-03T17:03:45.564Z,5.20
2023-03-03T17:06:21.666Z,5.05
2023-03-03T17:09:31.761Z,4.45
2023-03-03T17:12:15.441Z,5.35
2023-03-03T17:15:04.528Z,5.68
2023-03-03T17:17:40.456Z,5.38
2023-03-03T17:20:20.921Z,5.32
2023-03-03T17:23:03.018Z,5.32
2023-03-03T17:25:40.535Z,5.97
2023-03-03T17:28:23.870Z,5.70
2023-03-03T17:31:05.506Z,5.25
2023-03-03T17:33:47.028Z,5.45
2023-03-03T17:36:27.793Z,5.65
2023-03-03T17:39:07.473Z,5.05
2023-03-03T17:41:41.451Z,5.07
2023-03-03T17:44:20.691Z,4.93
2023-03-03T17:46:55.404Z,4.95
2023-03-03T17:49:41.139Z,4.60
2023-03-03T17:52:39.049Z,5.32
2023-03-03T17:55:40.481Z,5.50
2023-03-03T17:59:01.436Z,4.60
2023-03-03T18:01:59.988Z,4.70
2023-03-03T18:04:50.025Z,4.75
2023-03-03T18:07:49.876Z,5.88
2023-03-03T18:10:42.064Z,5.65
2023-03-03T18:13:29.660Z,5.25
2023-03-03T18:16:21.023Z,5.97
2023-03-03T18:19:08.572Z,4.57
2023-03-03T18:21:46.591Z,4.25
2023-03-03T18:24:29.685Z,5.68
2023-03-03T18:27:28.526Z,4.68
2023-03-03T18:30:33.387Z,4.63
2023-03-03T18:33:33.221Z,4.68
2023-03-03T18:36:36.378Z,4.75
2023-03-03T18:39:07.106Z,5.45
2023-03-03T18:42:06.824Z,4.85
2023-03-03T18:44:35.921Z,5.18
2023-03-03T18:47:05.585Z,5.35
2023-03-03T18:50:03.944Z,6.32
2023-03-03T18:52:36.445Z,23.08
2023-03-03T18:55:27.482Z,10.57
2023-03-03T18:58:28.651Z,5.07
2023-03-03T19:01:00.651Z,5.25
2023-03-03T19:03:35.495Z,5.95
2023-03-03T19:06:05.862Z,4.75
2023-03-03T19:08:56.253Z,5.68
2023-03-03T19:11:40.738Z,5.20
2023-03-03T19:14:41.383Z,5.55
2023-03-03T19:17:49.285Z,6.00
2023-03-03T19:20:18.914Z,5.40
2023-03-03T19:22:49.392Z,4.93
2023-03-03T19:25:24.750Z,5.43
2023-03-03T19:28:07.185Z,4.97
2023-03-03T19:30:45.803Z,4.60
2023-03-03T19:33:42.095Z,4.78
2023-03-03T19:36:38.530Z,4.97
2023-03-03T19:39:31.985Z,4.72
2023-03-03T19:42:10.879Z,4.55
2023-03-03T19:45:04.369Z,4.10
2023-03-03T19:47:40.288Z,4.53
2023-03-03T19:50:21.305Z,4.57
2023-03-03T19:52:59.900Z,4.60
2023-03-03T19:55:40.304Z,4.32
2023-03-03T19:58:22.457Z,5.03
2023-03-03T20:00:56.978Z,4.90
2023-03-03T20:04:03.440Z,4.55
2023-03-03T20:06:41.014Z,4.28
2023-03-03T20:09:17.725Z,4.57
2023-03-03T20:11:59.243Z,4.50
2023-03-03T20:14:41.671Z,5.43
2023-03-03T20:17:38.834Z,5.53
2023-03-03T20:20:30.879Z,5.38
2023-03-03T20:23:11.330Z,4.75
2023-03-03T20:25:44.851Z,4.93
2023-03-03T20:28:39.120Z,5.30
2023-03-03T20:31:15.836Z,5.10
2023-03-03T20:33:54.037Z,5.55
2023-03-03T20:36:32.740Z,6.10
2023-03-03T20:39:08.656Z,6.28
2023-03-03T20:41:59.816Z,6.20
2023-03-03T20:44:41.873Z,6.70
2023-03-03T20:47:20.259Z,6.53
2023-03-03T20:50:15.651Z,6.65
2023-03-03T20:52:58.023Z,7.53
2023-03-03T20:55:36.271Z,7.85
2023-03-03T20:58:12.469Z,7.00
2023-03-03T21:00:47.440Z,7.00
2023-03-03T21:03:25.314Z,7.47
2023-03-03T21:05:59.365Z,6.97
2023-03-03T21:08:53.282Z,7.35
2023-03-03T21:11:24.220Z,8.25
2023-03-03T21:13:54.466Z,7.32
2023-03-03T21:16:33.165Z,7.90
2023-03-03T21:19:06.007Z,8.50
2023-03-03T21:24:05.411Z,8.07
2023-03-03T21:26:48.477Z,7.60
2023-03-03T21:29:23.148Z,7.70
2023-03-03T21:31:54.131Z,7.53
2023-03-03T21:34:30.919Z,8.38
2023-03-03T21:37:01.058Z,8.75
2023-03-03T21:39:32.200Z,8.65
2023-03-03T21:42:03.497Z,8.27
2023-03-03T21:44:40.819Z,8.77
2023-03-03T21:47:12.161Z,9.02
2023-03-03T21:49:44.000Z,8.25
2023-03-03T21:52:14.505Z,9.10
2023-03-03T21:54:43.255Z,8.93
2023-03-03T21:57:12.138Z,8.98
2023-03-03T21:59:41.431Z,9.43
2023-03-03T22:02:10.856Z,9.00
2023-03-03T22:04:40.941Z,9.45
2023-03-03T22:07:11.681Z,9.07
2023-03-03T22:09:42.707Z,9.40
2023-03-03T22:12:12.117Z,9.75
2023-03-03T22:14:40.962Z,10.07
2023-03-03T22:17:10.785Z,10.00
2023-03-03T22:19:39.683Z,10.02
2023-03-03T22:22:08.505Z,9.90
2023-03-03T22:24:38.854Z,9.82
2023-03-03T22:27:08.322Z,10.23
2023-03-03T22:29:37.435Z,11.65
2023-03-03T22:32:07.161Z,9.68
2023-03-03T22:34:36.201Z,10.57
2023-03-03T22:37:04.995Z,10.18
2023-03-03T22:39:33.692Z,10.40
2023-03-03T22:42:04.504Z,9.90
2023-03-03T22:44:33.551Z,9.32
2023-03-03T22:47:02.304Z,9.02
2023-03-03T22:49:31.453Z,8.70
2023-03-03T22:52:00.944Z,9.13
2023-03-03T22:54:29.898Z,9.90
2023-03-03T22:56:58.793Z,8.65
2023-03-03T22:59:29.090Z,9.40
2023-03-03T23:01:57.839Z,8.45
2023-03-03T23:04:26.525Z,8.25
2023-03-03T23:06:57.299Z,8.02
2023-03-03T23:09:26.169Z,7.43
2023-03-03T23:11:54.944Z,7.32
2023-03-03T23:14:23.853Z,7.20
2023-03-03T23:16:54.141Z,7.20
2023-03-03T23:19:22.788Z,7.47
2023-03-03T23:21:51.649Z,7.20
2023-03-03T23:24:20.321Z,7.43
2023-03-03T23:26:51.897Z,6.75
2023-03-03T23:29:20.564Z,7.00
2023-03-03T23:31:49.578Z,7.75
2023-03-03T23:34:19.687Z,6.25
2023-03-03T23:36:48.420Z,6.15
2023-03-03T23:39:17.635Z,5.53
2023-03-03T23:41:47.574Z,5.43
2023-03-03T23:44:16.420Z,6.10
2023-03-03T23:46:45.159Z,6.03
2023-03-03T23:49:13.808Z,5.97
2023-03-03T23:51:44.043Z,6.70
2023-03-03T23:54:12.786Z,5.60
2023-03-03T23:56:41.522Z,5.50
2023-03-03T23:59:10.321Z,5.82
